Terminal Aerodrome Forecast
Issued by NWS

Home | Current Version | Previous Version | Text Only | Print | Product List | Glossary Off
Versions: 1 2 3 4 5 6 7 8 9 10 11 12 13 14 15 16 17 18 19 20

000
FTUS43 KGRB 010500
TAFAUW
TAF
KAUW 010529Z 0106/0206 16006KT P6SM VCSH BKN060 OVC100
     FM011000 19008KT 3SM SHRA VCTS BKN020CB OVC030 WS012/20035KT
      TEMPO 0111/0115 2SM +SHRA BKN009 OVC015
     FM011600 24010G16KT 6SM BR VCSH SCT009 OVC015
     FM012000 27010G18KT P6SM SCT015 SCT100=

USA.gov is the U.S. government's official web portal to all federal, state and local government web resources and services.